Time;durP1;ratioP1;P1;durP2;ratioP2;P2;SDS_P1;SDS_P2;PMS_P1;PMS_P2;Temp;Humidity;BMP_temperature;BMP_pressure;BME280_temperature;BME280_humidity;BME280_pressure;Samples;Min_cycle;Max_cycle;Signal;HPM_P1;HPM_P2
2023/09/07 00:00:59;;;;;;;;;;;;;;;-144.99;100.00;52177.00;4990016;28;19953;-62
2023/09/07 00:03:25;;;;;;;;;;;;;;;-144.99;100.00;52146.44;4986376;28;19962;-64
2023/09/07 00:05:52;;;;;;;;;;;;;;;-144.99;100.00;52119.94;4999131;28;19999;-63
2023/09/07 00:08:18;;;;;;;;;;;;;;;-144.99;100.00;52191.28;4999046;28;19963;-63
2023/09/07 00:10:45;;;;;;;;;;;;;;;-144.99;100.00;52174.97;4997860;28;19999;-63
2023/09/07 00:13:12;;;;;;;;;;;;;;;-144.99;100.00;52146.44;4998991;28;20009;-64
2023/09/07 00:15:39;;;;;;;;;;;;;;;-144.99;100.00;52142.38;4991886;28;20672;-63
2023/09/07 00:18:05;;;;;;;;;;;;;;;-144.99;100.00;52154.59;4995434;28;19965;-63
2023/09/07 00:20:33;;;;;;;;;;;;;;;-144.99;100.00;52158.66;4994749;28;20217;-63
2023/09/07 00:23:00;;;;;;;;;;;;;;;-144.99;100.00;52191.28;4997211;28;20011;-63
2023/09/07 00:25:26;;;;;;;;;;;;;;;-144.99;100.00;52142.38;4996195;28;19985;-62
2023/09/07 00:27:53;;;;;;;;;;;;;;;-144.99;100.00;52191.28;4988978;28;20406;-62
2023/09/07 00:30:21;;;;;;;;;;;;;;;-144.99;100.00;52168.84;4988605;28;20027;-63
2023/09/07 00:32:48;;;;;;;;;;;;;;;-144.99;100.00;52146.44;4984367;28;19962;-63
2023/09/07 00:35:14;;;;;;;;;;;;;;;-144.99;100.00;52150.53;4984153;28;20031;-64
2023/09/07 00:37:41;;;;;;;;;;;;;;;-144.99;100.00;52168.84;4990077;28;20005;-63
2023/09/07 00:40:09;;;;;;;;;;;;;;;-144.99;100.00;52193.31;4990750;28;20000;-63
2023/09/07 00:42:35;;;;;;;;;;;;;;;-144.99;100.00;52150.53;4988716;28;20432;-62
2023/09/07 00:45:02;;;;;;;;;;;;;;;-144.99;100.00;52130.13;4986954;28;19985;-63
2023/09/07 00:47:30;;;;;;;;;;;;;;;-144.99;100.00;52203.50;4984193;28;19987;-64
2023/09/07 00:49:58;;;;;;;;;;;;;;;-144.99;100.00;52187.19;4985423;28;19964;-63
2023/09/07 00:52:24;;;;;;;;;;;;;;;-144.99;100.00;52134.22;4983272;28;19925;-63
2023/09/07 00:54:50;;;;;;;;;;;;;;;-144.99;100.00;52146.44;4986210;28;20019;-63
2023/09/07 00:57:18;;;;;;;;;;;;;;;-144.99;100.00;52124.03;4989752;28;20228;-65
2023/09/07 00:59:45;;;;;;;;;;;;;;;-144.99;100.00;52154.59;4985510;28;20100;-66
2023/09/07 01:02:11;;;;;;;;;;;;;;;-144.99;100.00;52158.66;4985528;28;20055;-66
2023/09/07 01:04:39;;;;;;;;;;;;;;;-144.99;100.00;52207.59;4982213;28;19942;-64
2023/09/07 01:07:10;;;;;;;;;;;;;;;-144.99;100.00;52193.31;4983184;28;20091;-64
2023/09/07 01:09:37;;;;;;;;;;;;;;;-144.99;100.00;52195.34;4985247;28;19945;-64
2023/09/07 01:12:04;;;;;;;;;;;;;;;-144.99;100.00;52146.44;4987700;28;19969;-64
2023/09/07 01:14:31;;;;;;;;;;;;;;;-144.99;100.00;52158.66;4989650;28;20034;-68
2023/09/07 01:16:58;;;;;;;;;;;;;;;-144.99;100.00;52156.63;4987869;28;19971;-65
2023/09/07 01:19:25;;;;;;;;;;;;;;;-144.99;100.00;52158.66;4987609;28;20024;-65
2023/09/07 01:21:52;;;;;;;;;;;;;;;-144.99;100.00;52166.81;4990854;28;20305;-65
2023/09/07 01:24:20;;;;;;;;;;;;;;;-144.99;100.00;52162.75;4990019;28;20022;-65
2023/09/07 01:26:49;;;;;;;;;;;;;;;-144.99;100.00;52199.44;4989191;28;20002;-65
2023/09/07 01:29:16;;;;;;;;;;;;;;;-144.99;100.00;52172.94;4990544;28;19944;-68
2023/09/07 01:31:43;;;;;;;;;;;;;;;-144.99;100.00;52195.34;4990709;28;20409;-63
2023/09/07 01:34:09;;;;;;;;;;;;;;;-144.99;100.00;52174.97;4990201;28;19962;-61
2023/09/07 01:36:36;;;;;;;;;;;;;;;-144.99;100.00;52170.91;4990638;28;19926;-61
2023/09/07 01:39:05;;;;;;;;;;;;;;;-144.99;100.00;52201.47;4991228;28;20018;-63
2023/09/07 01:41:33;;;;;;;;;;;;;;;-144.99;100.00;52160.72;4986889;28;19940;-63
2023/09/07 01:43:59;;;;;;;;;;;;;;;-144.99;100.00;52179.06;4989258;28;20039;-61
2023/09/07 01:46:26;;;;;;;;;;;;;;;-144.99;100.00;52191.28;4992117;28;20012;-62
2023/09/07 01:48:52;;;;;;;;;;;;;;;-144.99;100.00;52185.16;4994484;28;19955;-62
2023/09/07 01:51:19;;;;;;;;;;;;;;;-144.99;100.00;52179.06;4989916;28;19941;-62
2023/09/07 01:53:48;;;;;;;;;;;;;;;-144.99;100.00;52195.34;4992019;28;19957;-62
2023/09/07 01:56:15;;;;;;;;;;;;;;;-144.99;100.00;52191.28;4991160;28;19995;-62
2023/09/07 01:58:42;;;;;;;;;;;;;;;-144.99;100.00;52187.19;4989858;28;19984;-63
2023/09/07 02:01:20;;;;;;;;;;;;;;;-144.99;100.00;52154.59;4992668;28;20005;-63
2023/09/07 02:03:46;;;;;;;;;;;;;;;-144.99;100.00;52174.97;4992594;28;20030;-62
2023/09/07 02:06:13;;;;;;;;;;;;;;;-144.99;100.00;52185.16;4992534;28;19992;-64
2023/09/07 02:08:39;;;;;;;;;;;;;;;-144.99;100.00;52179.06;4998316;28;19995;-66
2023/09/07 02:11:06;;;;;;;;;;;;;;;-144.99;100.00;52162.75;4985553;28;20486;-63
2023/09/07 02:13:34;;;;;;;;;;;;;;;-144.99;100.00;52166.81;4985636;28;19969;-64
2023/09/07 02:16:04;;;;;;;;;;;;;;;-144.99;100.00;52213.69;4988971;28;20130;-66
2023/09/07 02:18:30;;;;;;;;;;;;;;;-144.99;100.00;52191.28;4986939;28;20036;-64
2023/09/07 02:21:01;;;;;;;;;;;;;;;-144.99;100.00;52179.06;4990823;28;19985;-64
2023/09/07 02:23:28;;;;;;;;;;;;;;;-144.99;100.00;52195.34;4992555;28;20003;-62
2023/09/07 02:25:54;;;;;;;;;;;;;;;-144.99;100.00;52199.44;4982165;28;20818;-64
2023/09/07 02:28:21;;;;;;;;;;;;;;;-144.99;100.00;52199.44;4985126;28;19984;-64
2023/09/07 02:30:48;;;;;;;;;;;;;;;-144.99;100.00;52179.06;4986091;28;19956;-64
2023/09/07 02:33:15;;;;;;;;;;;;;;;-144.99;100.00;52181.09;4983092;28;20038;-61
2023/09/07 02:35:41;;;;;;;;;;;;;;;-144.99;100.00;52195.34;4980593;28;20035;-63
2023/09/07 02:38:08;;;;;;;;;;;;;;;-144.99;100.00;52195.34;4983423;28;20405;-63
2023/09/07 02:40:40;;;;;;;;;;;;;;;-144.99;100.00;52166.81;4983177;28;21143;-70
2023/09/07 02:43:07;;;;;;;;;;;;;;;-144.99;100.00;52166.81;4977779;28;19956;-67
2023/09/07 02:45:33;;;;;;;;;;;;;;;-144.99;100.00;52195.34;4983244;28;20003;-66
2023/09/07 02:48:01;;;;;;;;;;;;;;;-144.99;100.00;52179.06;4987456;28;20384;-65
2023/09/07 02:50:29;;;;;;;;;;;;;;;-144.99;100.00;52191.28;4988253;28;19981;-65
2023/09/07 02:52:55;;;;;;;;;;;;;;;-144.99;100.00;52174.97;4981885;28;20003;-68
2023/09/07 02:55:22;;;;;;;;;;;;;;;-144.99;100.00;52203.50;4983241;28;19973;-63
2023/09/07 02:57:48;;;;;;;;;;;;;;;-144.99;100.00;52179.06;4982966;28;20409;-66
2023/09/07 03:00:17;;;;;;;;;;;;;;;-144.99;100.00;52199.44;4983524;28;20007;-66
2023/09/07 03:02:46;;;;;;;;;;;;;;;-144.99;100.00;52187.19;4985761;28;20054;-66
2023/09/07 03:05:14;;;;;;;;;;;;;;;-144.99;100.00;52195.34;4986646;28;20030;-67
2023/09/07 03:07:40;;;;;;;;;;;;;;;-144.99;100.00;52191.28;4985522;28;20312;-67
2023/09/07 03:10:07;;;;;;;;;;;;;;;-144.99;100.00;52183.13;4984271;28;20301;-67
2023/09/07 03:12:33;;;;;;;;;;;;;;;-144.99;100.00;52187.19;4984691;28;19958;-67
2023/09/07 03:15:03;;;;;;;;;;;;;;;-144.99;100.00;52187.19;4996624;28;19956;-67
2023/09/07 03:17:29;;;;;;;;;;;;;;;-144.99;100.00;52195.34;4998736;28;19932;-67
2023/09/07 03:19:56;;;;;;;;;;;;;;;-144.99;100.00;52181.09;5004077;28;20166;-66
2023/09/07 03:22:25;;;;;;;;;;;;;;;-144.99;100.00;52138.28;4996162;28;19997;-65
2023/09/07 03:27:28;;;;;;;;;;;;;;;-144.99;100.00;52201.47;4988864;28;19962;-63
2023/09/07 03:29:54;;;;;;;;;;;;;;;-144.99;100.00;52193.31;4998653;28;19944;-64
2023/09/07 03:32:21;;;;;;;;;;;;;;;-144.99;100.00;52195.34;4999230;28;19957;-63
2023/09/07 03:34:47;;;;;;;;;;;;;;;-144.99;100.00;52177.00;4999114;28;19946;-64
2023/09/07 03:37:14;;;;;;;;;;;;;;;-144.99;100.00;52179.06;4999076;28;19983;-64
2023/09/07 03:39:41;;;;;;;;;;;;;;;-144.99;100.00;52191.28;4992591;28;20041;-64
2023/09/07 03:42:08;;;;;;;;;;;;;;;-144.99;100.00;52146.44;4996406;28;19940;-64
2023/09/07 03:44:35;;;;;;;;;;;;;;;-144.99;100.00;52195.34;4990122;28;19966;-64
2023/09/07 03:47:03;;;;;;;;;;;;;;;-144.99;100.00;52191.28;4991103;28;19926;-64
2023/09/07 03:49:30;;;;;;;;;;;;;;;-144.99;100.00;52195.34;4988154;28;19944;-64
2023/09/07 03:51:56;;;;;;;;;;;;;;;-144.99;100.00;52217.78;4984747;28;19944;-64
2023/09/07 03:54:23;;;;;;;;;;;;;;;-144.99;100.00;52227.97;4977142;28;19956;-64
2023/09/07 03:56:51;;;;;;;;;;;;;;;-144.99;100.00;52183.13;4979178;28;20021;-65
2023/09/07 03:59:17;;;;;;;;;;;;;;;-144.99;100.00;52199.44;4982205;28;19971;-65
2023/09/07 04:01:44;;;;;;;;;;;;;;;-144.99;100.00;52199.44;4979498;28;19930;-65
2023/09/07 04:04:10;;;;;;;;;;;;;;;-144.99;100.00;52195.34;4984775;28;20518;-65
2023/09/07 04:06:37;;;;;;;;;;;;;;;-144.99;100.00;52158.66;4984522;28;20011;-66
2023/09/07 04:09:03;;;;;;;;;;;;;;;-144.99;100.00;52191.28;4984431;28;19960;-71
2023/09/07 04:11:30;;;;;;;;;;;;;;;-144.99;100.00;52199.44;4984229;28;20006;-69
2023/09/07 04:13:57;;;;;;;;;;;;;;;-144.99;100.00;52183.13;4985769;28;19968;-71
2023/09/07 04:16:24;;;;;;;;;;;;;;;-144.99;100.00;52179.06;4983261;28;20022;-71
2023/09/07 04:18:50;;;;;;;;;;;;;;;-144.99;100.00;52187.19;4982684;28;20282;-73
2023/09/07 04:21:17;;;;;;;;;;;;;;;-144.99;100.00;52170.91;4990585;28;20039;-71
2023/09/07 04:23:43;;;;;;;;;;;;;;;-144.99;100.00;52191.28;4990204;28;19999;-72
2023/09/07 04:26:11;;;;;;;;;;;;;;;-144.99;100.00;52195.34;4991255;28;19995;-70
2023/09/07 04:28:37;;;;;;;;;;;;;;;-144.99;100.00;52170.91;4990080;28;19981;-70
2023/09/07 04:31:06;;;;;;;;;;;;;;;-144.99;100.00;52170.91;4990805;28;20406;-70
2023/09/07 04:33:32;;;;;;;;;;;;;;;-144.99;100.00;52203.50;4991585;28;19962;-70
2023/09/07 04:36:06;;;;;;;;;;;;;;;-144.99;100.00;52213.69;5001544;28;19990;-71
2023/09/07 04:38:33;;;;;;;;;;;;;;;-144.99;100.00;52199.44;4991521;28;19964;-75
2023/09/07 04:41:06;;;;;;;;;;;;;;;-144.99;100.00;52170.91;4996954;28;19998;-70
2023/09/07 04:43:32;;;;;;;;;;;;;;;-144.99;100.00;52195.34;4996417;28;20488;-72
2023/09/07 04:45:59;;;;;;;;;;;;;;;-144.99;100.00;52195.34;4990549;28;20089;-72
2023/09/07 04:48:26;;;;;;;;;;;;;;;-144.99;100.00;52195.34;4988286;28;20149;-73
2023/09/07 04:50:58;;;;;;;;;;;;;;;-144.99;100.00;52215.75;4984818;28;19987;-71
2023/09/07 04:53:24;;;;;;;;;;;;;;;-144.99;100.00;52236.13;4989824;28;20415;-71
2023/09/07 04:55:51;;;;;;;;;;;;;;;-144.99;100.00;52187.19;4989883;28;20384;-71
2023/09/07 04:58:17;;;;;;;;;;;;;;;-144.99;100.00;52181.09;4989870;28;20399;-72
2023/09/07 05:00:44;;;;;;;;;;;;;;;-144.99;100.00;52195.34;4989021;28;20026;-71
2023/09/07 05:03:10;;;;;;;;;;;;;;;-144.99;100.00;52207.59;4991364;28;20035;-70
2023/09/07 05:05:38;;;;;;;;;;;;;;;-144.99;100.00;52215.75;4991259;28;19961;-71
2023/09/07 05:08:05;;;;;;;;;;;;;;;-144.99;100.00;52215.75;4983951;28;19973;-72
2023/09/07 05:10:38;;;;;;;;;;;;;;;-144.99;100.00;52211.66;4991365;28;19968;-70
2023/09/07 05:13:04;;;;;;;;;;;;;;;-144.99;100.00;52170.91;4991913;28;20007;-70
2023/09/07 05:15:31;;;;;;;;;;;;;;;-144.99;100.00;52211.66;4989476;28;20393;-70
2023/09/07 05:17:57;;;;;;;;;;;;;;;-144.99;100.00;52179.06;4990716;28;20027;-69
2023/09/07 05:20:24;;;;;;;;;;;;;;;-144.99;100.00;52160.72;4990204;28;20003;-70
2023/09/07 05:22:52;;;;;;;;;;;;;;;-144.99;100.00;52191.28;4986908;28;20052;-70
2023/09/07 05:25:20;;;;;;;;;;;;;;;-144.99;100.00;52217.78;4990293;28;19977;-71
2023/09/07 05:27:46;;;;;;;;;;;;;;;-144.99;100.00;52191.28;4988376;28;19953;-70
2023/09/07 05:30:13;;;;;;;;;;;;;;;-144.99;100.00;52179.06;4990694;28;19995;-71
2023/09/07 05:32:41;;;;;;;;;;;;;;;-144.99;100.00;52164.78;4989532;28;20400;-71
2023/09/07 05:35:10;;;;;;;;;;;;;;;-144.99;100.00;52187.19;4989832;28;19987;-71
2023/09/07 05:37:36;;;;;;;;;;;;;;;-144.99;100.00;52227.97;4981788;28;20028;-70
2023/09/07 05:40:07;;;;;;;;;;;;;;;-144.99;100.00;52203.50;4988744;28;19946;-69
2023/09/07 05:42:33;;;;;;;;;;;;;;;-144.99;100.00;52195.34;4984128;28;19967;-70
2023/09/07 05:44:59;;;;;;;;;;;;;;;-144.99;100.00;52227.97;4991297;28;20015;-70
2023/09/07 05:47:26;;;;;;;;;;;;;;;-144.99;100.00;52179.06;4990154;28;20309;-70
2023/09/07 05:49:53;;;;;;;;;;;;;;;-144.99;100.00;52195.34;4990511;28;20007;-70
2023/09/07 05:52:19;;;;;;;;;;;;;;;-144.99;100.00;52187.19;4990549;28;19999;-70
2023/09/07 05:54:46;;;;;;;;;;;;;;;-144.99;100.00;52183.13;4989164;28;19979;-71
2023/09/07 05:57:14;;;;;;;;;;;;;;;-144.99;100.00;52191.28;4980234;28;19943;-70
2023/09/07 05:59:40;;;;;;;;;;;;;;;-144.99;100.00;52195.34;4985541;28;20039;-71
2023/09/07 06:02:07;;;;;;;;;;;;;;;-144.99;100.00;52146.44;4990602;28;20043;-71
2023/09/07 06:04:35;;;;;;;;;;;;;;;-144.99;100.00;52199.44;4989883;28;19942;-71
2023/09/07 06:07:01;;;;;;;;;;;;;;;-144.99;100.00;52195.34;4985573;28;19967;-71
2023/09/07 06:09:28;;;;;;;;;;;;;;;-144.99;100.00;52179.06;4990747;28;19946;-70
2023/09/07 06:11:55;;;;;;;;;;;;;;;-144.99;100.00;52195.34;4989713;28;19999;-71
2023/09/07 06:14:23;;;;;;;;;;;;;;;-144.99;100.00;52211.66;4987778;28;20483;-71
2023/09/07 06:16:49;;;;;;;;;;;;;;;-144.99;100.00;52211.66;4993223;28;19975;-70
2023/09/07 06:19:16;;;;;;;;;;;;;;;-144.99;100.00;52179.06;4992472;28;20279;-70
2023/09/07 06:21:42;;;;;;;;;;;;;;;-144.99;100.00;52207.59;4993678;28;19961;-70
2023/09/07 06:24:09;;;;;;;;;;;;;;;-144.99;100.00;52154.59;4989875;28;20000;-70
2023/09/07 06:26:35;;;;;;;;;;;;;;;-144.99;100.00;52195.34;4990064;28;20439;-70
2023/09/07 06:29:02;;;;;;;;;;;;;;;-144.99;99.30;52179.06;4990063;28;20408;-69
2023/09/07 06:31:29;;;;;;;;;;;;;;;-144.99;99.10;52128.09;4991440;28;19976;-70
2023/09/07 06:33:56;;;;;;;;;;;;;;;-144.99;98.89;52187.19;4983079;28;19999;-70
2023/09/07 06:36:22;;;;;;;;;;;;;;;-144.99;99.07;52174.97;4990915;28;19987;-70
2023/09/07 06:38:49;;;;;;;;;;;;;;;-144.99;99.03;52158.66;4991029;28;19944;-70
2023/09/07 06:41:16;;;;;;;;;;;;;;;-144.99;98.87;52199.44;4980057;28;20407;-71
2023/09/07 06:43:42;;;;;;;;;;;;;;;-144.99;98.67;52121.97;4990504;28;19956;-71
2023/09/07 06:46:09;;;;;;;;;;;;;;;-144.99;98.06;52177.00;4983328;28;19980;-70
2023/09/07 06:48:37;;;;;;;;;;;;;;;-144.99;98.10;52179.06;4990770;28;19929;-70
2023/09/07 06:51:04;;;;;;;;;;;;;;;-144.99;97.76;52162.75;4989295;28;20329;-71
2023/09/07 06:53:30;;;;;;;;;;;;;;;-144.99;96.92;52179.06;4984982;28;19962;-72
2023/09/07 06:56:00;;;;;;;;;;;;;;;-144.99;96.74;52134.22;4990277;28;19967;-70
2023/09/07 06:58:27;;;;;;;;;;;;;;;-144.99;96.83;52179.06;4985819;28;20041;-70
2023/09/07 07:00:53;;;;;;;;;;;;;;;-144.99;96.32;52174.97;4991861;28;19952;-71
2023/09/07 07:03:20;;;;;;;;;;;;;;;-144.99;95.90;52174.97;4994018;28;19989;-71
2023/09/07 07:05:48;;;;;;;;;;;;;;;-144.99;96.32;52183.13;4993628;28;20010;-71
2023/09/07 07:08:14;;;;;;;;;;;;;;;-144.99;95.68;52152.56;4994133;28;19979;-71
2023/09/07 07:10:41;;;;;;;;;;;;;;;-144.99;94.43;52160.72;4993646;28;19969;-71
2023/09/07 07:13:07;;;;;;;;;;;;;;;-144.99;93.96;52193.31;4994124;28;20002;-71
2023/09/07 07:15:35;;;;;;;;;;;;;;;-144.99;93.51;52138.28;4992820;28;20348;-71
2023/09/07 07:18:05;;;;;;;;;;;;;;;-144.99;93.82;52164.78;4987222;28;19940;-70
2023/09/07 07:20:32;;;;;;;;;;;;;;;-144.99;92.29;52177.00;4992512;28;19944;-71
2023/09/07 07:23:00;;;;;;;;;;;;;;;-144.99;91.85;52162.75;4993584;28;20430;-70
2023/09/07 07:25:26;;;;;;;;;;;;;;;-144.99;91.14;52138.28;4993554;28;19976;-70
2023/09/07 07:27:52;;;;;;;;;;;;;;;-144.99;90.83;52117.91;4990131;28;20027;-71
2023/09/07 07:30:19;;;;;;;;;;;;;;;-144.99;90.44;52158.66;4985621;28;20011;-70
2023/09/07 07:32:45;;;;;;;;;;;;;;;-144.99;89.51;52146.44;4993469;28;19976;-70
2023/09/07 07:35:12;;;;;;;;;;;;;;;-144.99;88.26;52121.97;4990096;28;19985;-71
2023/09/07 07:37:38;;;;;;;;;;;;;;;-144.99;88.71;52168.84;4993734;28;20041;-70
2023/09/07 07:40:07;;;;;;;;;;;;;;;-144.99;87.98;52138.28;4987222;28;19942;-71
2023/09/07 07:42:34;;;;;;;;;;;;;;;-144.99;86.73;52160.72;4993568;28;20012;-71
2023/09/07 07:45:00;;;;;;;;;;;;;;;-144.99;86.30;52105.69;4990089;28;19999;-70
2023/09/07 07:47:27;;;;;;;;;;;;;;;-144.99;85.55;52121.97;4990614;28;19960;-71
2023/09/07 07:49:53;;;;;;;;;;;;;;;-144.99;84.61;52117.91;4992610;28;19991;-70
2023/09/07 07:52:21;;;;;;;;;;;;;;;-144.99;84.04;52148.47;4993158;28;20042;-71
2023/09/07 07:54:48;;;;;;;;;;;;;;;-144.99;83.09;52130.13;4993965;28;19948;-70
2023/09/07 07:57:16;;;;;;;;;;;;;;;-144.99;82.76;52109.75;4986175;28;20020;-71
2023/09/07 07:59:42;;;;;;;;;;;;;;;-144.99;81.81;52099.56;4989020;28;20188;-71
2023/09/07 08:02:09;;;;;;;;;;;;;;;-144.99;81.10;52115.88;4993319;28;20381;-70
2023/09/07 08:04:35;;;;;;;;;;;;;;;-144.99;81.38;52121.97;4984651;28;19993;-71
2023/09/07 08:07:03;;;;;;;;;;;;;;;-144.99;80.51;52085.31;4992855;28;19953;-71
2023/09/07 08:09:30;;;;;;;;;;;;;;;-144.99;80.09;52107.72;4991656;28;20020;-71
2023/09/07 08:11:57;;;;;;;;;;;;;;;-144.99;79.51;52081.22;4992304;28;19979;-70
2023/09/07 08:14:26;;;;;;;;;;;;;;;-144.99;78.55;52121.97;4989842;28;19958;-71
2023/09/07 08:16:54;;;;;;;;;;;;;;;-144.99;78.04;52126.06;4992786;28;19930;-71
2023/09/07 08:19:20;;;;;;;;;;;;;;;-144.99;78.63;52085.31;4992525;28;20367;-71
2023/09/07 08:21:47;;;;;;;;;;;;;;;-144.99;78.45;52093.44;4986613;28;19925;-71
2023/09/07 08:24:13;;;;;;;;;;;;;;;-144.99;78.79;52117.91;4987683;28;19926;-72
2023/09/07 08:26:40;;;;;;;;;;;;;;;-144.99;77.94;52085.31;4991067;28;19983;-71
2023/09/07 08:29:08;;;;;;;;;;;;;;;-144.99;77.26;52109.75;4992094;28;20383;-71
2023/09/07 08:31:38;;;;;;;;;;;;;;;-144.99;75.67;52056.78;4991701;28;20503;-71
2023/09/07 08:34:05;;;;;;;;;;;;;;;-144.99;75.29;52071.03;4991627;28;19957;-71
2023/09/07 08:36:33;;;;;;;;;;;;;;;-144.99;74.81;52056.78;4992084;28;20366;-71
2023/09/07 08:39:01;;;;;;;;;;;;;;;-144.99;73.93;52083.25;4993206;28;19990;-71
2023/09/07 08:41:27;;;;;;;;;;;;;;;-144.99;73.76;52085.31;4990789;28;19946;-71
2023/09/07 08:43:55;;;;;;;;;;;;;;;-144.99;73.75;52077.16;4991209;28;19960;-72
2023/09/07 08:46:21;;;;;;;;;;;;;;;-144.99;73.09;52081.22;4991444;28;20537;-72
2023/09/07 08:48:50;;;;;;;;;;;;;;;-144.99;72.47;52032.31;4989369;28;19930;-71
2023/09/07 08:51:17;;;;;;;;;;;;;;;-144.99;71.68;52062.88;4991325;28;20696;-71
2023/09/07 08:53:46;;;;;;;;;;;;;;;-144.99;71.58;52050.66;4990207;28;20375;-71
2023/09/07 08:56:13;;;;;;;;;;;;;;;-144.99;70.60;52036.38;4991180;28;20013;-68
2023/09/07 08:58:40;;;;;;;;;;;;;;;-144.99;70.10;52046.56;4987867;28;20374;-71
2023/09/07 09:01:08;;;;;;;;;;;;;;;-144.99;70.02;52095.50;4989017;28;19925;-71
2023/09/07 09:03:34;;;;;;;;;;;;;;;-144.99;70.51;52028.22;4990943;28;20071;-71
2023/09/07 09:06:03;;;;;;;;;;;;;;;-144.99;69.27;52062.88;4988359;28;19995;-71
2023/09/07 09:08:30;;;;;;;;;;;;;;;-144.99;68.22;52040.47;4990593;28;20061;-71
2023/09/07 09:11:02;;;;;;;;;;;;;;;-144.99;68.30;52052.69;4991693;28;20166;-71
2023/09/07 09:13:29;;;;;;;;;;;;;;;-144.99;67.90;52044.53;4990316;28;20019;-71
2023/09/07 09:15:55;;;;;;;;;;;;;;;-144.99;67.82;52056.78;4988597;28;19972;-71
2023/09/07 09:18:22;;;;;;;;;;;;;;;-144.99;67.38;52042.50;4991442;28;20047;-71
2023/09/07 09:20:49;;;;;;;;;;;;;;;-144.99;67.19;52048.63;4990763;28;19973;-70
2023/09/07 09:23:17;;;;;;;;;;;;;;;-144.99;66.88;52026.19;4990450;28;20036;-70
2023/09/07 09:25:43;;;;;;;;;;;;;;;-144.99;66.67;52020.09;4990357;28;19983;-70
2023/09/07 09:28:10;;;;;;;;;;;;;;;-144.99;65.65;51995.63;4990626;28;20047;-71
2023/09/07 09:30:36;;;;;;;;;;;;;;;-144.99;65.68;51999.69;4989220;28;20003;-72
2023/09/07 09:35:36;;;;;;;;;;;;;;;-144.99;66.09;51971.16;4958177;28;19930;-73
2023/09/07 09:38:04;;;;;;;;;;;;;;;-144.99;64.97;52016.00;4952795;28;19950;-72
2023/09/07 09:40:32;;;;;;;;;;;;;;;-144.99;64.55;52020.09;4945093;28;19962;-72
2023/09/07 09:42:58;;;;;;;;;;;;;;;-144.99;64.10;52028.22;4951444;28;20024;-72
2023/09/07 09:45:27;;;;;;;;;;;;;;;-144.99;63.38;52052.69;4941561;29;20024;-71
2023/09/07 09:47:56;;;;;;;;;;;;;;;-144.99;63.43;51963.03;4948442;29;19942;-71
2023/09/07 09:50:23;;;;;;;;;;;;;;;-144.99;63.22;52007.84;4941497;29;20004;-72
2023/09/07 09:52:49;;;;;;;;;;;;;;;-144.99;62.83;52032.31;4945775;28;19981;-72
2023/09/07 09:55:16;;;;;;;;;;;;;;;-144.99;62.94;52018.03;4946703;29;20377;-71
2023/09/07 09:57:44;;;;;;;;;;;;;;;-144.99;62.93;52032.31;4944551;29;19948;-72
2023/09/07 10:00:21;;;;;;;;;;;;;;;-144.99;61.97;51954.88;4941669;29;19965;-72
2023/09/07 10:02:49;;;;;;;;;;;;;;;-144.99;61.37;51991.56;4941941;28;20319;-72
2023/09/07 10:05:16;;;;;;;;;;;;;;;-144.99;60.56;52007.84;4944059;29;19942;-72
2023/09/07 10:07:43;;;;;;;;;;;;;;;-144.99;60.41;52028.22;4937061;29;20009;-72
2023/09/07 10:10:13;;;;;;;;;;;;;;;-144.99;60.71;52016.00;4946863;29;19964;-73
2023/09/07 10:12:45;;;;;;;;;;;;;;;-144.99;60.30;51934.50;4936225;29;20362;-72
2023/09/07 10:15:21;;;;;;;;;;;;;;;-144.99;60.16;51963.03;4944973;29;20086;-72
2023/09/07 10:17:49;;;;;;;;;;;;;;;-144.99;60.04;51960.97;4940362;29;19986;-72
2023/09/07 10:20:16;;;;;;;;;;;;;;;-144.99;60.32;51946.72;4939882;29;20043;-72
2023/09/07 10:22:43;;;;;;;;;;;;;;;-144.99;59.78;51967.09;4946581;29;19982;-72
2023/09/07 10:25:19;;;;;;;;;;;;;;;-144.99;59.43;51934.50;4943250;28;19966;-72
2023/09/07 10:27:47;;;;;;;;;;;;;;;-144.99;59.33;51938.56;4945444;29;20012;-72
2023/09/07 10:30:18;;;;;;;;;;;;;;;-144.99;59.35;51942.63;4939338;29;19962;-71
2023/09/07 10:32:45;;;;;;;;;;;;;;;-144.99;59.08;51946.72;4940257;29;20071;-73
2023/09/07 10:35:16;;;;;;;;;;;;;;;-144.99;58.48;51905.97;4935243;29;20000;-72
2023/09/07 10:37:44;;;;;;;;;;;;;;;-144.99;58.15;51897.81;4936210;29;19937;-72
2023/09/07 10:40:11;;;;;;;;;;;;;;;-144.99;57.76;51861.13;4935733;29;19989;-72
2023/09/07 10:42:38;;;;;;;;;;;;;;;-144.99;57.85;51897.81;4941135;29;19926;-71
2023/09/07 10:45:16;;;;;;;;;;;;;;;-144.99;58.02;51910.03;4941187;28;20037;-72
2023/09/07 10:47:43;;;;;;;;;;;;;;;-144.99;57.62;51861.13;4934836;29;19975;-72
2023/09/07 10:50:11;;;;;;;;;;;;;;;-144.99;57.39;51867.22;4939177;29;20415;-71
2023/09/07 10:52:37;;;;;;;;;;;;;;;-144.99;57.09;51840.75;4941966;28;19997;-71
2023/09/07 10:55:04;;;;;;;;;;;;;;;-144.99;57.39;51861.13;4944926;29;20340;-71
2023/09/07 10:57:30;;;;;;;;;;;;;;;-144.99;57.39;51897.81;4948314;29;20016;-71
2023/09/07 10:59:57;;;;;;;;;;;;;;;-144.99;56.95;51848.91;4939260;29;19992;-71
2023/09/07 11:02:25;;;;;;;;;;;;;;;-144.99;56.90;51836.66;4944974;28;19963;-72
2023/09/07 11:04:51;;;;;;;;;;;;;;;-144.99;56.88;51830.56;4947553;29;20000;-72
2023/09/07 11:07:18;;;;;;;;;;;;;;;-144.99;56.23;51816.28;4937769;29;19961;-72
2023/09/07 11:09:44;;;;;;;;;;;;;;;-144.99;55.86;51808.13;4943446;29;20014;-72
2023/09/07 11:12:13;;;;;;;;;;;;;;;-144.99;55.17;51779.59;4937756;28;19982;-73
2023/09/07 11:14:39;;;;;;;;;;;;;;;-144.99;55.13;51808.13;4943005;29;20553;-72
2023/09/07 11:17:06;;;;;;;;;;;;;;;-144.99;55.12;51812.22;4943135;29;19950;-72
2023/09/07 11:19:34;;;;;;;;;;;;;;;-144.99;55.23;51763.31;4936338;29;20046;-72
2023/09/07 11:22:03;;;;;;;;;;;;;;;-144.99;54.96;51799.97;4941220;29;19953;-71
2023/09/07 11:24:31;;;;;;;;;;;;;;;-144.99;55.15;51799.97;4942366;29;20041;-71
2023/09/07 11:26:58;;;;;;;;;;;;;;;-144.99;54.59;51799.97;4947045;28;20465;-72
2023/09/07 11:29:25;;;;;;;;;;;;;;;-144.99;54.58;51783.69;4947658;29;20008;-71
2023/09/07 11:31:51;;;;;;;;;;;;;;;-144.99;54.38;51779.59;4944008;29;20724;-71
2023/09/07 11:34:17;;;;;;;;;;;;;;;-144.99;54.42;51767.38;4945156;29;20058;-71
2023/09/07 11:36:45;;;;;;;;;;;;;;;-144.99;54.00;51812.22;4943521;29;20379;-72
2023/09/07 11:39:13;;;;;;;;;;;;;;;-144.99;53.92;51771.44;4943710;29;19947;-72
2023/09/07 11:41:40;;;;;;;;;;;;;;;-144.99;53.91;51783.69;4944142;29;19991;-73
2023/09/07 11:44:07;;;;;;;;;;;;;;;-144.99;53.82;51771.44;4947404;28;19958;-71
2023/09/07 11:46:33;;;;;;;;;;;;;;;-144.99;53.45;51779.59;4944791;29;19997;-74
2023/09/07 11:49:00;;;;;;;;;;;;;;;-144.99;53.52;51744.97;4948986;28;20025;-74
2023/09/07 11:51:26;;;;;;;;;;;;;;;-144.99;53.71;51767.38;4946028;29;20018;-71
2023/09/07 11:53:54;;;;;;;;;;;;;;;-144.99;53.34;51799.97;4947551;28;20025;-73
2023/09/07 11:56:21;;;;;;;;;;;;;;;-144.99;53.54;51787.75;4947149;28;19992;-73
2023/09/07 11:58:47;;;;;;;;;;;;;;;-144.99;54.08;51795.91;4936750;29;20340;-71
2023/09/07 12:01:16;;;;;;;;;;;;;;;-144.99;53.63;51775.53;4945419;29;19943;-72
2023/09/07 12:03:42;;;;;;;;;;;;;;;-144.99;53.24;51755.16;4941494;28;19976;-73
2023/09/07 12:06:09;;;;;;;;;;;;;;;-144.99;53.30;51783.69;4943184;29;19986;-72
2023/09/07 12:08:35;;;;;;;;;;;;;;;-144.99;53.01;51763.31;4950171;29;19982;-74
2023/09/07 12:11:03;;;;;;;;;;;;;;;-144.99;53.64;51771.44;4943748;29;20482;-71
2023/09/07 12:13:30;;;;;;;;;;;;;;;-144.99;53.93;51751.06;4943690;29;20064;-74
2023/09/07 12:15:56;;;;;;;;;;;;;;;-144.99;53.76;51767.38;4944399;29;20463;-71
2023/09/07 12:18:23;;;;;;;;;;;;;;;-144.99;54.48;51832.59;4947137;29;20036;-75
2023/09/07 12:20:50;;;;;;;;;;;;;;;-144.99;54.97;51828.50;4946330;28;19937;-72
2023/09/07 12:23:16;;;;;;;;;;;;;;;-144.99;54.85;51787.75;4950075;29;20028;-70
2023/09/07 12:25:43;;;;;;;;;;;;;;;-144.99;54.44;51771.44;4940671;29;19993;-70